sensor_id;sensor_type;location;lat;lon;timestamp;pressure;altitude;pressure_sealevel;temperature
54026;BMP280;74404;50.662;3.398;2024-03-22T00:02:07;101593.16;;;12.46
54026;BMP280;74404;50.662;3.398;2024-03-22T00:04:32;101588.13;;;12.44
54026;BMP280;74404;50.662;3.398;2024-03-22T00:06:58;101593.44;;;12.44
54026;BMP280;74404;50.662;3.398;2024-03-22T00:09:23;101580.41;;;12.43
54026;BMP280;74404;50.662;3.398;2024-03-22T00:11:48;101582.00;;;12.44
54026;BMP280;74404;50.662;3.398;2024-03-22T00:14:14;101578.78;;;12.42
54026;BMP280;74404;50.662;3.398;2024-03-22T00:16:39;101570.81;;;12.42
54026;BMP280;74404;50.662;3.398;2024-03-22T00:19:05;101574.06;;;12.39
54026;BMP280;74404;50.662;3.398;2024-03-22T00:21:31;101574.84;;;12.39
54026;BMP280;74404;50.662;3.398;2024-03-22T00:23:57;101580.97;;;12.40
54026;BMP280;74404;50.662;3.398;2024-03-22T00:26:22;101579.38;;;12.39
54026;BMP280;74404;50.662;3.398;2024-03-22T00:28:48;101578.84;;;12.37
54026;BMP280;74404;50.662;3.398;2024-03-22T00:31:14;101580.72;;;12.36
54026;BMP280;74404;50.662;3.398;2024-03-22T00:33:40;101576.44;;;12.35
54026;BMP280;74404;50.662;3.398;2024-03-22T00:36:06;101566.38;;;12.32
54026;BMP280;74404;50.662;3.398;2024-03-22T00:38:31;101566.06;;;12.34
54026;BMP280;74404;50.662;3.398;2024-03-22T00:40:58;101567.19;;;12.33
54026;BMP280;74404;50.662;3.398;2024-03-22T00:43:23;101566.38;;;12.32
54026;BMP280;74404;50.662;3.398;2024-03-22T00:45:49;101569.84;;;12.33
54026;BMP280;74404;50.662;3.398;2024-03-22T00:48:15;101564.00;;;12.31
54026;BMP280;74404;50.662;3.398;2024-03-22T00:50:41;101561.34;;;12.31
54026;BMP280;74404;50.662;3.398;2024-03-22T00:53:06;101548.56;;;12.28
54026;BMP280;74404;50.662;3.398;2024-03-22T00:55:33;101553.91;;;12.28
54026;BMP280;74404;50.662;3.398;2024-03-22T00:57:59;101558.41;;;12.27
54026;BMP280;74404;50.662;3.398;2024-03-22T01:00:24;101556.84;;;12.26
54026;BMP280;74404;50.662;3.398;2024-03-22T01:02:50;101538.53;;;12.19
54026;BMP280;74404;50.662;3.398;2024-03-22T01:05:16;101552.59;;;12.25
54026;BMP280;74404;50.662;3.398;2024-03-22T01:07:42;101550.22;;;12.23
54026;BMP280;74404;50.662;3.398;2024-03-22T01:10:07;101531.56;;;12.23
54026;BMP280;74404;50.662;3.398;2024-03-22T01:12:33;101527.34;;;12.22
54026;BMP280;74404;50.662;3.398;2024-03-22T01:14:58;101525.97;;;12.25
54026;BMP280;74404;50.662;3.398;2024-03-22T01:17:24;101522.56;;;12.19
54026;BMP280;74404;50.662;3.398;2024-03-22T01:19:50;101524.66;;;12.22
54026;BMP280;74404;50.662;3.398;2024-03-22T01:22:17;101520.13;;;12.23
54026;BMP280;74404;50.662;3.398;2024-03-22T01:24:43;101523.63;;;12.18
54026;BMP280;74404;50.662;3.398;2024-03-22T01:27:08;101524.13;;;12.20
54026;BMP280;74404;50.662;3.398;2024-03-22T01:29:34;101509.81;;;12.16
54026;BMP280;74404;50.662;3.398;2024-03-22T01:31:59;101523.91;;;12.17
54026;BMP280;74404;50.662;3.398;2024-03-22T01:34:24;101520.47;;;12.16
54026;BMP280;74404;50.662;3.398;2024-03-22T01:36:51;101521.25;;;12.17
54026;BMP280;74404;50.662;3.398;2024-03-22T01:39:18;101516.72;;;12.12
54026;BMP280;74404;50.662;3.398;2024-03-22T01:41:49;101511.72;;;12.11
54026;BMP280;74404;50.662;3.398;2024-03-22T01:44:15;101514.38;;;12.11
54026;BMP280;74404;50.662;3.398;2024-03-22T01:46:41;101516.97;;;12.16
54026;BMP280;74404;50.662;3.398;2024-03-22T01:49:09;101503.41;;;12.12
54026;BMP280;74404;50.662;3.398;2024-03-22T01:51:35;101498.41;;;12.11
54026;BMP280;74404;50.662;3.398;2024-03-22T01:54:02;101492.28;;;12.10
54026;BMP280;74404;50.662;3.398;2024-03-22T01:56:28;101500.75;;;12.12
54026;BMP280;74404;50.662;3.398;2024-03-22T01:58:56;101502.63;;;12.12
54026;BMP280;74404;50.662;3.398;2024-03-22T02:01:22;101491.78;;;12.08
54026;BMP280;74404;50.662;3.398;2024-03-22T02:03:47;101498.16;;;12.07
54026;BMP280;74404;50.662;3.398;2024-03-22T02:06:13;101491.78;;;12.08
54026;BMP280;74404;50.662;3.398;2024-03-22T02:08:39;101483.00;;;12.08
54026;BMP280;74404;50.662;3.398;2024-03-22T02:11:07;101490.69;;;12.09
54026;BMP280;74404;50.662;3.398;2024-03-22T02:13:32;101494.16;;;12.10
54026;BMP280;74404;50.662;3.398;2024-03-22T02:15:58;101499.75;;;12.08
54026;BMP280;74404;50.662;3.398;2024-03-22T02:18:23;101489.94;;;12.03
54026;BMP280;74404;50.662;3.398;2024-03-22T02:20:49;101490.75;;;12.04
54026;BMP280;74404;50.662;3.398;2024-03-22T02:23:14;101485.13;;;12.06
54026;BMP280;74404;50.662;3.398;2024-03-22T02:25:39;101472.38;;;12.02
54026;BMP280;74404;50.662;3.398;2024-03-22T02:28:05;101477.44;;;12.04
54026;BMP280;74404;50.662;3.398;2024-03-22T02:30:30;101470.53;;;12.03
54026;BMP280;74404;50.662;3.398;2024-03-22T02:32:56;101463.59;;;12.02
54026;BMP280;74404;50.662;3.398;2024-03-22T02:35:21;101461.72;;;12.02
54026;BMP280;74404;50.662;3.398;2024-03-22T02:37:47;101454.84;;;12.01
54026;BMP280;74404;50.662;3.398;2024-03-22T02:40:12;101460.94;;;12.02
54026;BMP280;74404;50.662;3.398;2024-03-22T02:42:38;101468.94;;;12.02
54026;BMP280;74404;50.662;3.398;2024-03-22T02:45:03;101474.00;;;11.98
54026;BMP280;74404;50.662;3.398;2024-03-22T02:47:29;101476.44;;;11.95
54026;BMP280;74404;50.662;3.398;2024-03-22T02:49:54;101470.59;;;11.93
54026;BMP280;74404;50.662;3.398;2024-03-22T02:52:20;101459.16;;;11.92
54026;BMP280;74404;50.662;3.398;2024-03-22T02:54:45;101456.22;;;11.94
54026;BMP280;74404;50.662;3.398;2024-03-22T02:57:11;101447.72;;;11.92
54026;BMP280;74404;50.662;3.398;2024-03-22T02:59:36;101443.47;;;11.91
54026;BMP280;74404;50.662;3.398;2024-03-22T03:02:02;101443.75;;;11.89
54026;BMP280;74404;50.662;3.398;2024-03-22T03:04:27;101437.91;;;11.87
54026;BMP280;74404;50.662;3.398;2024-03-22T03:06:52;101437.13;;;11.87
54026;BMP280;74404;50.662;3.398;2024-03-22T03:09:18;101432.09;;;11.85
54026;BMP280;74404;50.662;3.398;2024-03-22T03:11:43;101436.31;;;11.86
54026;BMP280;74404;50.662;3.398;2024-03-22T03:14:09;101432.34;;;11.83
54026;BMP280;74404;50.662;3.398;2024-03-22T03:16:34;101433.19;;;11.79
54026;BMP280;74404;50.662;3.398;2024-03-22T03:19:00;101430.03;;;11.77
54026;BMP280;74404;50.662;3.398;2024-03-22T03:21:25;101437.72;;;11.78
54026;BMP280;74404;50.662;3.398;2024-03-22T03:23:51;101440.13;;;11.80
54026;BMP280;74404;50.662;3.398;2024-03-22T03:26:17;101439.88;;;11.76
54026;BMP280;74404;50.662;3.398;2024-03-22T03:28:42;101440.66;;;11.77
54026;BMP280;74404;50.662;3.398;2024-03-22T03:31:08;101431.91;;;11.71
54026;BMP280;74404;50.662;3.398;2024-03-22T03:33:33;101439.91;;;11.71
54026;BMP280;74404;50.662;3.398;2024-03-22T03:35:58;101435.66;;;11.70
54026;BMP280;74404;50.662;3.398;2024-03-22T03:38:24;101425.03;;;11.70
54026;BMP280;74404;50.662;3.398;2024-03-22T03:40:49;101419.44;;;11.72
54026;BMP280;74404;50.662;3.398;2024-03-22T03:43:15;101408.53;;;11.73
54026;BMP280;74404;50.662;3.398;2024-03-22T03:45:40;101400.81;;;11.72
54026;BMP280;74404;50.662;3.398;2024-03-22T03:48:06;101394.09;;;11.74
54026;BMP280;74404;50.662;3.398;2024-03-22T03:50:31;101392.56;;;11.73
54026;BMP280;74404;50.662;3.398;2024-03-22T03:52:57;101384.84;;;11.72
54026;BMP280;74404;50.662;3.398;2024-03-22T03:55:22;101381.44;;;11.66
54026;BMP280;74404;50.662;3.398;2024-03-22T03:57:51;101388.06;;;11.69
54026;BMP280;74404;50.662;3.398;2024-03-22T04:00:19;101389.63;;;11.70
54026;BMP280;74404;50.662;3.398;2024-03-22T04:02:44;101381.94;;;11.68
54026;BMP280;74404;50.662;3.398;2024-03-22T04:05:10;101388.63;;;11.66
54026;BMP280;74404;50.662;3.398;2024-03-22T04:07:35;101391.03;;;11.62
54026;BMP280;74404;50.662;3.398;2024-03-22T04:10:01;101397.66;;;11.65
54026;BMP280;74404;50.662;3.398;2024-03-22T04:12:27;101389.94;;;11.63
54026;BMP280;74404;50.662;3.398;2024-03-22T04:14:54;101390.22;;;11.61
54026;BMP280;74404;50.662;3.398;2024-03-22T04:17:19;101377.75;;;11.62
54026;BMP280;74404;50.662;3.398;2024-03-22T04:19:45;101384.38;;;11.65
54026;BMP280;74404;50.662;3.398;2024-03-22T04:22:10;101375.31;;;11.66
54026;BMP280;74404;50.662;3.398;2024-03-22T04:24:36;101374.53;;;11.65
54026;BMP280;74404;50.662;3.398;2024-03-22T04:27:01;101366.84;;;11.63
54026;BMP280;74404;50.662;3.398;2024-03-22T04:29:27;101359.97;;;11.57
54026;BMP280;74404;50.662;3.398;2024-03-22T04:31:52;101365.00;;;11.59
54026;BMP280;74404;50.662;3.398;2024-03-22T04:34:18;101370.03;;;11.60
54026;BMP280;74404;50.662;3.398;2024-03-22T04:36:43;101366.28;;;11.61
54026;BMP280;74404;50.662;3.398;2024-03-22T04:39:09;101374.28;;;11.61
54026;BMP280;74404;50.662;3.398;2024-03-22T04:41:37;101379.09;;;11.59
54026;BMP280;74404;50.662;3.398;2024-03-22T04:44:02;101379.59;;;11.61
54026;BMP280;74404;50.662;3.398;2024-03-22T04:46:28;101362.16;;;11.50
54026;BMP280;74404;50.662;3.398;2024-03-22T04:48:53;101373.03;;;11.54
54026;BMP280;74404;50.662;3.398;2024-03-22T04:51:19;101386.88;;;11.51
54026;BMP280;74404;50.662;3.398;2024-03-22T04:53:44;101386.88;;;11.51
54026;BMP280;74404;50.662;3.398;2024-03-22T04:56:10;101377.03;;;11.51
54026;BMP280;74404;50.662;3.398;2024-03-22T04:58:35;101377.03;;;11.51
54026;BMP280;74404;50.662;3.398;2024-03-22T05:01:00;101370.69;;;11.47
54026;BMP280;74404;50.662;3.398;2024-03-22T05:03:26;101379.19;;;11.49
54026;BMP280;74404;50.662;3.398;2024-03-22T05:05:51;101371.25;;;11.44
54026;BMP280;74404;50.662;3.398;2024-03-22T05:08:17;101378.13;;;11.45
54026;BMP280;74404;50.662;3.398;2024-03-22T05:10:42;101377.84;;;11.47
54026;BMP280;74404;50.662;3.398;2024-03-22T05:13:08;101390.63;;;11.45
54026;BMP280;74404;50.662;3.398;2024-03-22T05:15:33;101363.03;;;11.40
54026;BMP280;74404;50.662;3.398;2024-03-22T05:17:59;101382.41;;;11.41
54026;BMP280;74404;50.662;3.398;2024-03-22T05:20:25;101366.28;;;11.32
54026;BMP280;74404;50.662;3.398;2024-03-22T05:22:51;101366.28;;;11.32
54026;BMP280;74404;50.662;3.398;2024-03-22T05:25:16;101368.88;;;11.37
54026;BMP280;74404;50.662;3.398;2024-03-22T05:27:42;101366.22;;;11.37
54026;BMP280;74404;50.662;3.398;2024-03-22T05:30:09;101363.28;;;11.39
54026;BMP280;74404;50.662;3.398;2024-03-22T05:32:35;101362.75;;;11.42
54026;BMP280;74404;50.662;3.398;2024-03-22T05:35:00;101359.56;;;11.40
54026;BMP280;74404;50.662;3.398;2024-03-22T05:37:26;101346.81;;;11.37
54026;BMP280;74404;50.662;3.398;2024-03-22T05:39:52;101362.22;;;11.40
54026;BMP280;74404;50.662;3.398;2024-03-22T05:42:17;101358.03;;;11.34
54026;BMP280;74404;50.662;3.398;2024-03-22T05:44:47;101364.91;;;11.35
54026;BMP280;74404;50.662;3.398;2024-03-22T05:47:12;101357.47;;;11.37
54026;BMP280;74404;50.662;3.398;2024-03-22T05:49:38;101356.38;;;11.38
54026;BMP280;74404;50.662;3.398;2024-03-22T05:52:03;101355.88;;;11.36
54026;BMP280;74404;50.662;3.398;2024-03-22T05:54:29;101352.16;;;11.37
54026;BMP280;74404;50.662;3.398;2024-03-22T05:56:55;101353.72;;;11.38
54026;BMP280;74404;50.662;3.398;2024-03-22T05:59:21;101354.28;;;11.35
54026;BMP280;74404;50.662;3.398;2024-03-22T06:01:46;101357.75;;;11.35
54026;BMP280;74404;50.662;3.398;2024-03-22T06:04:11;101353.22;;;11.36
54026;BMP280;74404;50.662;3.398;2024-03-22T06:06:37;101341.25;;;11.33
54026;BMP280;74404;50.662;3.398;2024-03-22T06:09:03;101341.25;;;11.33
54026;BMP280;74404;50.662;3.398;2024-03-22T06:11:32;101333.28;;;11.33
54026;BMP280;74404;50.662;3.398;2024-03-22T06:13:57;101334.66;;;11.31
54026;BMP280;74404;50.662;3.398;2024-03-22T06:16:23;101328.50;;;11.30
54026;BMP280;74404;50.662;3.398;2024-03-22T06:18:49;101326.41;;;11.32
54026;BMP280;74404;50.662;3.398;2024-03-22T06:21:14;101324.78;;;11.31
54026;BMP280;74404;50.662;3.398;2024-03-22T06:23:40;101326.16;;;11.29
54026;BMP280;74404;50.662;3.398;2024-03-22T06:26:06;101316.59;;;11.28
54026;BMP280;74404;50.662;3.398;2024-03-22T06:28:32;101320.28;;;11.32
54026;BMP280;74404;50.662;3.398;2024-03-22T06:30:57;101318.44;;;11.32
54026;BMP280;74404;50.662;3.398;2024-03-22T06:33:23;101327.19;;;11.33
54026;BMP280;74404;50.662;3.398;2024-03-22T06:35:48;101309.09;;;11.35
54026;BMP280;74404;50.662;3.398;2024-03-22T06:38:14;101308.56;;;11.33
54026;BMP280;74404;50.662;3.398;2024-03-22T06:40:39;101310.44;;;11.32
54026;BMP280;74404;50.662;3.398;2024-03-22T06:43:05;101310.44;;;11.32
54026;BMP280;74404;50.662;3.398;2024-03-22T06:45:30;101306.97;;;11.32
54026;BMP280;74404;50.662;3.398;2024-03-22T06:47:55;101319.75;;;11.30
54026;BMP280;74404;50.662;3.398;2024-03-22T06:50:21;101324.00;;;11.31
54026;BMP280;74404;50.662;3.398;2024-03-22T06:52:53;101328.25;;;11.32
54026;BMP280;74404;50.662;3.398;2024-03-22T06:55:19;101313.38;;;11.31
54026;BMP280;74404;50.662;3.398;2024-03-22T06:57:48;101324.00;;;11.31
54026;BMP280;74404;50.662;3.398;2024-03-22T07:00:14;101310.22;;;11.23
54026;BMP280;74404;50.662;3.398;2024-03-22T07:02:40;101319.25;;;11.28
54026;BMP280;74404;50.662;3.398;2024-03-22T07:05:09;101321.13;;;11.27
54026;BMP280;74404;50.662;3.398;2024-03-22T07:07:35;101304.13;;;11.23
54026;BMP280;74404;50.662;3.398;2024-03-22T07:10:05;101315.00;;;11.27
54026;BMP280;74404;50.662;3.398;2024-03-22T07:12:34;101313.16;;;11.27
54026;BMP280;74404;50.662;3.398;2024-03-22T07:15:00;101305.47;;;11.26
54026;BMP280;74404;50.662;3.398;2024-03-22T07:17:26;101306.25;;;11.26
54026;BMP280;74404;50.662;3.398;2024-03-22T07:19:52;101304.09;;;11.28
54026;BMP280;74404;50.662;3.398;2024-03-22T07:22:18;101305.72;;;11.24
54026;BMP280;74404;50.662;3.398;2024-03-22T07:24:44;101297.75;;;11.24
54026;BMP280;74404;50.662;3.398;2024-03-22T07:27:10;101296.66;;;11.25
54026;BMP280;74404;50.662;3.398;2024-03-22T07:29:35;101298.53;;;11.25
54026;BMP280;74404;50.662;3.398;2024-03-22T07:32:01;101305.72;;;11.24
54026;BMP280;74404;50.662;3.398;2024-03-22T07:34:26;101297.47;;;11.26
54026;BMP280;74404;50.662;3.398;2024-03-22T07:36:52;101300.13;;;11.26
54026;BMP280;74404;50.662;3.398;2024-03-22T07:39:18;101296.41;;;11.27
54026;BMP280;74404;50.662;3.398;2024-03-22T07:41:44;101291.34;;;11.25
54026;BMP280;74404;50.662;3.398;2024-03-22T07:44:09;101287.63;;;11.26
54026;BMP280;74404;50.662;3.398;2024-03-22T07:46:36;101294.00;;;11.25
54026;BMP280;74404;50.662;3.398;2024-03-22T07:49:01;101286.84;;;11.26
54026;BMP280;74404;50.662;3.398;2024-03-22T07:51:29;101287.13;;;11.24
54026;BMP280;74404;50.662;3.398;2024-03-22T07:53:55;101291.34;;;11.25
54026;BMP280;74404;50.662;3.398;2024-03-22T07:56:20;101293.22;;;11.25
54026;BMP280;74404;50.662;3.398;2024-03-22T07:58:46;101292.22;;;11.20
54026;BMP280;74404;50.662;3.398;2024-03-22T08:01:12;101282.88;;;11.23
54026;BMP280;74404;50.662;3.398;2024-03-22T08:03:37;101279.16;;;11.24
54026;BMP280;74404;50.662;3.398;2024-03-22T08:06:03;101264.78;;;11.25
54026;BMP280;74404;50.662;3.398;2024-03-22T08:08:29;101262.66;;;11.22
54026;BMP280;74404;50.662;3.398;2024-03-22T08:10:55;101270.38;;;11.23
54026;BMP280;74404;50.662;3.398;2024-03-22T08:13:20;101275.16;;;11.21
54026;BMP280;74404;50.662;3.398;2024-03-22T08:15:45;101287.13;;;11.24
54026;BMP280;74404;50.662;3.398;2024-03-22T08:18:11;101286.56;;;11.22
54026;BMP280;74404;50.662;3.398;2024-03-22T08:20:37;101290.31;;;11.21
54026;BMP280;74404;50.662;3.398;2024-03-22T08:23:04;101287.66;;;11.21
54026;BMP280;74404;50.662;3.398;2024-03-22T08:25:30;101288.44;;;11.21
54026;BMP280;74404;50.662;3.398;2024-03-22T08:27:55;101287.41;;;11.22
54026;BMP280;74404;50.662;3.398;2024-03-22T08:30:21;101278.13;;;11.20
54026;BMP280;74404;50.662;3.398;2024-03-22T08:32:47;101280.78;;;11.20
54026;BMP280;74404;50.662;3.398;2024-03-22T08:35:13;101279.69;;;11.21
54026;BMP280;74404;50.662;3.398;2024-03-22T08:37:38;101275.94;;;11.22
54026;BMP280;74404;50.662;3.398;2024-03-22T08:40:04;101282.34;;;11.21
54026;BMP280;74404;50.662;3.398;2024-03-22T08:42:30;101278.34;;;11.23
54026;BMP280;74404;50.662;3.398;2024-03-22T08:44:55;101270.09;;;11.25
54026;BMP280;74404;50.662;3.398;2024-03-22T08:47:21;101271.69;;;11.26
54026;BMP280;74404;50.662;3.398;2024-03-22T08:49:46;101265.03;;;11.23
54026;BMP280;74404;50.662;3.398;2024-03-22T08:52:12;101260.00;;;11.27
54026;BMP280;74404;50.662;3.398;2024-03-22T08:54:37;101253.34;;;11.25
54026;BMP280;74404;50.662;3.398;2024-03-22T08:57:03;101259.19;;;11.27
54026;BMP280;74404;50.662;3.398;2024-03-22T08:59:28;101271.13;;;11.29
54026;BMP280;74404;50.662;3.398;2024-03-22T09:01:53;101260.78;;;11.28
54026;BMP280;74404;50.662;3.398;2024-03-22T09:04:19;101251.72;;;11.29
54026;BMP280;74404;50.662;3.398;2024-03-22T09:06:45;101254.69;;;11.27
54026;BMP280;74404;50.662;3.398;2024-03-22T09:09:10;101260.22;;;11.31
54026;BMP280;74404;50.662;3.398;2024-03-22T09:11:36;101255.69;;;11.31
54026;BMP280;74404;50.662;3.398;2024-03-22T09:14:02;101241.84;;;11.34
54026;BMP280;74404;50.662;3.398;2024-03-22T09:16:27;101239.47;;;11.33
54026;BMP280;74404;50.662;3.398;2024-03-22T09:18:53;101241.59;;;11.36
54026;BMP280;74404;50.662;3.398;2024-03-22T09:21:18;101252.50;;;11.34
54026;BMP280;74404;50.662;3.398;2024-03-22T09:23:43;101253.00;;;11.36
54026;BMP280;74404;50.662;3.398;2024-03-22T09:26:09;101248.16;;;11.38
54026;BMP280;74404;50.662;3.398;2024-03-22T09:28:34;101242.38;;;11.36
54026;BMP280;74404;50.662;3.398;2024-03-22T09:31:04;101251.38;;;11.40
54026;BMP280;74404;50.662;3.398;2024-03-22T09:33:32;101242.56;;;11.40
54026;BMP280;74404;50.662;3.398;2024-03-22T09:35:58;101241.25;;;11.42
54026;BMP280;74404;50.662;3.398;2024-03-22T09:38:24;101239.88;;;11.45
54026;BMP280;74404;50.662;3.398;2024-03-22T09:40:49;101234.28;;;11.47
54026;BMP280;74404;50.662;3.398;2024-03-22T09:43:19;101238.25;;;11.49
54026;BMP280;74404;50.662;3.398;2024-03-22T09:45:47;101222.31;;;11.49
54026;BMP280;74404;50.662;3.398;2024-03-22T09:48:13;101226.84;;;11.49
54026;BMP280;74404;50.662;3.398;2024-03-22T09:50:39;101240.13;;;11.49
54026;BMP280;74404;50.662;3.398;2024-03-22T09:53:06;101239.84;;;11.50
54026;BMP280;74404;50.662;3.398;2024-03-22T09:55:33;101230.28;;;11.49
54026;BMP280;74404;50.662;3.398;2024-03-22T09:58:00;101231.56;;;11.52
54026;BMP280;74404;50.662;3.398;2024-03-22T10:00:25;101227.81;;;11.53
54026;BMP280;74404;50.662;3.398;2024-03-22T10:02:51;101219.56;;;11.54
54026;BMP280;74404;50.662;3.398;2024-03-22T10:05:17;101217.19;;;11.53
54026;BMP280;74404;50.662;3.398;2024-03-22T10:07:46;101225.13;;;11.58
54026;BMP280;74404;50.662;3.398;2024-03-22T10:10:11;101212.94;;;11.57
54026;BMP280;74404;50.662;3.398;2024-03-22T10:12:38;101221.13;;;11.60
54026;BMP280;74404;50.662;3.398;2024-03-22T10:15:05;101207.03;;;11.60
54026;BMP280;74404;50.662;3.398;2024-03-22T10:17:34;101211.75;;;11.63
54026;BMP280;74404;50.662;3.398;2024-03-22T10:20:00;101205.38;;;11.64
54026;BMP280;74404;50.662;3.398;2024-03-22T10:22:25;101211.22;;;11.66
54026;BMP280;74404;50.662;3.398;2024-03-22T10:24:50;101195.53;;;11.65
54026;BMP280;74404;50.662;3.398;2024-03-22T10:27:18;101207.19;;;11.69
54026;BMP280;74404;50.662;3.398;2024-03-22T10:29:44;101213.03;;;11.71
54026;BMP280;74404;50.662;3.398;2024-03-22T10:32:09;101211.16;;;11.71
54026;BMP280;74404;50.662;3.398;2024-03-22T10:34:35;101211.97;;;11.72
54026;BMP280;74404;50.662;3.398;2024-03-22T10:37:01;101200.25;;;11.73
54026;BMP280;74404;50.662;3.398;2024-03-22T10:39:27;101205.25;;;11.74
54026;BMP280;74404;50.662;3.398;2024-03-22T10:41:53;101206.84;;;11.75
54026;BMP280;74404;50.662;3.398;2024-03-22T10:44:19;101206.56;;;11.77
54026;BMP280;74404;50.662;3.398;2024-03-22T10:46:47;101198.31;;;11.78
54026;BMP280;74404;50.662;3.398;2024-03-22T10:49:18;101203.63;;;11.78
54026;BMP280;74404;50.662;3.398;2024-03-22T10:51:50;101203.63;;;11.78
54026;BMP280;74404;50.662;3.398;2024-03-22T10:54:19;101196.94;;;11.81
54026;BMP280;74404;50.662;3.398;2024-03-22T10:56:46;101192.44;;;11.81
54026;BMP280;74404;50.662;3.398;2024-03-22T10:59:19;101193.72;;;11.84
54026;BMP280;74404;50.662;3.398;2024-03-22T11:01:49;101193.44;;;11.86
54026;BMP280;74404;50.662;3.398;2024-03-22T11:04:19;101188.63;;;11.88
54026;BMP280;74404;50.662;3.398;2024-03-22T11:06:51;101192.09;;;11.88
54026;BMP280;74404;50.662;3.398;2024-03-22T11:09:23;101189.72;;;11.87
54026;BMP280;74404;50.662;3.398;2024-03-22T11:11:51;101180.63;;;11.88
54026;BMP280;74404;50.662;3.398;2024-03-22T11:14:17;101182.25;;;11.89
54026;BMP280;74404;50.662;3.398;2024-03-22T11:16:48;101175.81;;;11.90
54026;BMP280;74404;50.662;3.398;2024-03-22T11:19:14;101175.03;;;11.89
54026;BMP280;74404;50.662;3.398;2024-03-22T11:21:39;101170.50;;;11.90
54026;BMP280;74404;50.662;3.398;2024-03-22T11:24:05;101167.84;;;11.90
54026;BMP280;74404;50.662;3.398;2024-03-22T11:26:34;101172.38;;;11.89
54026;BMP280;74404;50.662;3.398;2024-03-22T11:29:00;101155.63;;;11.89
54026;BMP280;74404;50.662;3.398;2024-03-22T11:31:26;101157.97;;;11.90
54026;BMP280;74404;50.662;3.398;2024-03-22T11:33:55;101145.00;;;11.89
54026;BMP280;74404;50.662;3.398;2024-03-22T11:36:22;101148.94;;;11.91
54026;BMP280;74404;50.662;3.398;2024-03-22T11:38:48;101155.31;;;11.90
54026;BMP280;74404;50.662;3.398;2024-03-22T11:41:24;101146.56;;;11.90
54026;BMP280;74404;50.662;3.398;2024-03-22T11:43:51;101148.13;;;11.91
54026;BMP280;74404;50.662;3.398;2024-03-22T11:46:17;101140.44;;;11.89
54026;BMP280;74404;50.662;3.398;2024-03-22T11:48:43;101142.53;;;11.92
54026;BMP280;74404;50.662;3.398;2024-03-22T11:51:09;101128.44;;;11.92
54026;BMP280;74404;50.662;3.398;2024-03-22T11:53:35;101125.78;;;11.92
54026;BMP280;74404;50.662;3.398;2024-03-22T11:56:02;101130.81;;;11.93
54026;BMP280;74404;50.662;3.398;2024-03-22T11:58:31;101125.78;;;11.92
54026;BMP280;74404;50.662;3.398;2024-03-22T12:00:57;101125.50;;;11.93
54026;BMP280;74404;50.662;3.398;2024-03-22T12:03:23;101123.63;;;11.94
54026;BMP280;74404;50.662;3.398;2024-03-22T12:05:48;101126.28;;;11.94
54026;BMP280;74404;50.662;3.398;2024-03-22T12:08:17;101113.75;;;11.94
54026;BMP280;74404;50.662;3.398;2024-03-22T12:10:43;101105.28;;;11.92
54026;BMP280;74404;50.662;3.398;2024-03-22T12:13:09;101106.06;;;11.93
54026;BMP280;74404;50.662;3.398;2024-03-22T12:15:34;101113.25;;;11.92
54026;BMP280;74404;50.662;3.398;2024-03-22T12:18:00;101106.06;;;11.93
54026;BMP280;74404;50.662;3.398;2024-03-22T12:20:25;101101.84;;;11.92
54026;BMP280;74404;50.662;3.398;2024-03-22T12:22:52;101096.50;;;11.92
54026;BMP280;74404;50.662;3.398;2024-03-22T12:25:18;101096.50;;;11.92
54026;BMP280;74404;50.662;3.398;2024-03-22T12:27:43;101097.31;;;11.92
54026;BMP280;74404;50.662;3.398;2024-03-22T12:30:10;101095.72;;;11.91
54026;BMP280;74404;50.662;3.398;2024-03-22T12:32:36;101088.81;;;11.90
54026;BMP280;74404;50.662;3.398;2024-03-22T12:35:01;101095.22;;;11.89
54026;BMP280;74404;50.662;3.398;2024-03-22T12:37:27;101088.81;;;11.90
54026;BMP280;74404;50.662;3.398;2024-03-22T12:39:53;101084.59;;;11.89
54026;BMP280;74404;50.662;3.398;2024-03-22T12:42:19;101079.25;;;11.89
54026;BMP280;74404;50.662;3.398;2024-03-22T12:44:45;101085.97;;;11.87
54026;BMP280;74404;50.662;3.398;2024-03-22T12:47:10;101081.13;;;11.89
54026;BMP280;74404;50.662;3.398;2024-03-22T12:49:36;101070.88;;;11.82
54026;BMP280;74404;50.662;3.398;2024-03-22T12:52:01;101066.03;;;11.84
54026;BMP280;74404;50.662;3.398;2024-03-22T12:54:27;101070.88;;;11.82
54026;BMP280;74404;50.662;3.398;2024-03-22T12:56:52;101064.69;;;11.87
54026;BMP280;74404;50.662;3.398;2024-03-22T12:59:18;101059.91;;;11.83
54026;BMP280;74404;50.662;3.398;2024-03-22T13:01:43;101051.94;;;11.83
54026;BMP280;74404;50.662;3.398;2024-03-22T13:04:09;101054.59;;;11.83
54026;BMP280;74404;50.662;3.398;2024-03-22T13:06:34;101035.25;;;11.78
54026;BMP280;74404;50.662;3.398;2024-03-22T13:09:00;101034.69;;;11.81
54026;BMP280;74404;50.662;3.398;2024-03-22T13:11:25;101024.03;;;11.81
54026;BMP280;74404;50.662;3.398;2024-03-22T13:13:52;101027.53;;;11.81
54026;BMP280;74404;50.662;3.398;2024-03-22T13:16:18;101030.47;;;11.80
54026;BMP280;74404;50.662;3.398;2024-03-22T13:18:43;101029.72;;;11.74
54026;BMP280;74404;50.662;3.398;2024-03-22T13:21:09;101029.16;;;11.77
54026;BMP280;74404;50.662;3.398;2024-03-22T13:23:36;101022.75;;;11.78
54026;BMP280;74404;50.662;3.398;2024-03-22T13:26:03;101025.16;;;11.80
54026;BMP280;74404;50.662;3.398;2024-03-22T13:28:29;101011.63;;;11.76
54026;BMP280;74404;50.662;3.398;2024-03-22T13:31:02;101013.41;;;11.81
54026;BMP280;74404;50.662;3.398;2024-03-22T13:33:29;101022.19;;;11.81
54026;BMP280;74404;50.662;3.398;2024-03-22T13:35:55;101007.03;;;11.82
54026;BMP280;74404;50.662;3.398;2024-03-22T13:38:21;101004.66;;;11.80
54026;BMP280;74404;50.662;3.398;2024-03-22T13:40:56;101008.38;;;11.79
54026;BMP280;74404;50.662;3.398;2024-03-22T13:43:22;101001.47;;;11.78
54026;BMP280;74404;50.662;3.398;2024-03-22T13:45:51;100999.59;;;11.79
54026;BMP280;74404;50.662;3.398;2024-03-22T13:48:21;101008.66;;;11.78
54026;BMP280;74404;50.662;3.398;2024-03-22T13:50:50;100988.47;;;11.77